createdAt,value
2022-12-19T00:04:24.401Z,109.8
2022-12-19T00:10:30.975Z,113.3
2022-12-19T00:16:48.419Z,108.9
2022-12-19T00:29:56.757Z,108.8
2022-12-19T00:36:00.227Z,108
2022-12-19T00:42:07.599Z,109.1
2022-12-19T00:48:42.939Z,113.1
2022-12-19T00:55:32.702Z,115.3
2022-12-19T01:01:50.550Z,109.7
2022-12-19T02:16:01.816Z,103.7
2022-12-19T02:35:18.769Z,111.3
2022-12-19T02:48:43.868Z,102.5
2022-12-19T03:22:16.519Z,109.7
2022-12-19T03:28:30.301Z,109
2022-12-19T03:34:48.010Z,112.7
2022-12-19T03:40:56.023Z,109.1
2022-12-19T03:47:28.201Z,113.1
2022-12-19T04:27:46.784Z,98.4
2022-12-19T04:33:58.442Z,100.4
2022-12-19T04:46:34.998Z,103.9
2022-12-19T04:59:37.672Z,107.6
2022-12-19T05:06:09.314Z,102
2022-12-19T05:12:34.233Z,102.7
2022-12-19T05:18:38.577Z,102.2
2022-12-19T05:25:12.472Z,100.9
2022-12-19T05:38:03.823Z,99.3
2022-12-19T05:44:18.640Z,100.9
2022-12-19T05:51:07.710Z,98.2
2022-12-19T06:03:36.170Z,93.4
2022-12-19T06:09:31.058Z,93.9
2022-12-19T06:15:22.674Z,92.7
2022-12-19T06:21:16.280Z,102.5
2022-12-19T06:27:10.579Z,97
2022-12-19T06:33:04.705Z,97.2
2022-12-19T06:38:59.360Z,98.3
2022-12-19T06:44:52.534Z,97.7
2022-12-19T06:50:45.960Z,99.2
2022-12-19T06:56:39.244Z,98.6
2022-12-19T07:02:33.061Z,98.6
2022-12-19T07:08:40.681Z,100.2
2022-12-19T07:14:32.248Z,98.6
2022-12-19T07:20:31.308Z,100.1
2022-12-19T07:26:31.621Z,102.9
2022-12-19T07:32:22.378Z,96.7
2022-12-19T07:38:13.172Z,103
2022-12-19T07:44:08.264Z,103.3
2022-12-19T07:50:13.803Z,99.9
2022-12-19T07:56:19.976Z,98.9
2022-12-19T08:02:13.920Z,106.6
2022-12-19T08:08:05.331Z,103.7
2022-12-19T08:13:56.830Z,114.3
2022-12-19T08:19:49.196Z,101.9
2022-12-19T08:25:39.861Z,102
2022-12-19T08:31:31.923Z,103.9
2022-12-19T08:37:23.913Z,98.8
2022-12-19T08:43:15.471Z,100.4
2022-12-19T08:49:10.045Z,95.7
2022-12-19T08:55:02.445Z,93.8
2022-12-19T09:01:09.986Z,92.9
2022-12-19T09:07:02.303Z,92.1
2022-12-19T09:13:01.026Z,86.7
2022-12-19T09:18:56.960Z,86.9
2022-12-19T09:24:48.289Z,84.2
2022-12-19T09:30:42.338Z,84.1
2022-12-19T09:36:36.984Z,85.4
2022-12-19T09:42:45.581Z,87.7
2022-12-19T09:48:39.043Z,87.4
2022-12-19T09:54:47.918Z,78.9
2022-12-19T10:00:40.557Z,84.7
2022-12-19T10:08:11.224Z,80.1
2022-12-19T10:13:58.596Z,84.8
2022-12-19T10:19:53.101Z,82.1
2022-12-19T10:25:43.611Z,81
2022-12-19T10:31:43.661Z,77.4
2022-12-19T10:37:52.934Z,76.3
2022-12-19T10:43:50.234Z,74.2
2022-12-19T10:49:41.956Z,73.1
2022-12-19T10:55:42.020Z,72.2
2022-12-19T11:01:37.872Z,70.6
2022-12-19T11:07:30.720Z,69.9
2022-12-19T11:38:00.519Z,68.1
2022-12-19T11:43:53.216Z,65
2022-12-19T11:49:47.272Z,62.8
2022-12-19T11:55:38.500Z,65.7
2022-12-19T12:01:30.273Z,67
2022-12-19T12:38:40.604Z,57.8
2022-12-19T12:44:47.611Z,55.2
2022-12-19T12:50:39.263Z,51.4
2022-12-19T12:56:31.756Z,55.1
2022-12-19T13:02:25.845Z,47.5
2022-12-19T13:08:17.676Z,50.3
2022-12-19T13:14:09.344Z,50.7
2022-12-19T13:26:03.347Z,47.3
2022-12-19T13:31:55.951Z,43.9
2022-12-19T13:40:40.107Z,43.6
2022-12-19T13:46:27.051Z,41.1
2022-12-19T13:52:27.940Z,42.8
2022-12-19T13:58:32.321Z,45.4
2022-12-19T14:04:27.400Z,45
2022-12-19T14:14:17.609Z,44.9
2022-12-19T14:22:26.546Z,44.5
2022-12-19T14:28:38.541Z,39.7
2022-12-19T14:36:26.367Z,42.6
2022-12-19T14:42:15.708Z,42.5
2022-12-19T15:02:51.303Z,41.6
2022-12-19T15:11:53.495Z,40.7
2022-12-19T15:18:40.608Z,44.9
2022-12-19T15:24:32.018Z,43.2
2022-12-19T15:30:23.521Z,47.4
2022-12-19T15:36:14.878Z,47.7
2022-12-19T15:42:08.222Z,48.3
2022-12-19T15:47:59.449Z,48.7
2022-12-19T15:54:04.059Z,51
2022-12-19T16:00:36.907Z,49.3
2022-12-19T16:06:27.807Z,52.7
2022-12-19T16:12:21.001Z,52.2
2022-12-19T16:18:12.886Z,50.8
2022-12-19T16:24:05.971Z,51.1
2022-12-19T16:30:00.403Z,48.3
2022-12-19T16:36:24.059Z,46.7
2022-12-19T16:42:12.782Z,49
2022-12-19T16:48:07.709Z,46.4
2022-12-19T16:53:59.381Z,43.4
2022-12-19T16:59:53.289Z,44.9
2022-12-19T17:05:42.413Z,42.7
2022-12-19T17:11:33.362Z,42.8
2022-12-19T17:17:23.502Z,42.9
2022-12-19T17:23:13.966Z,42.9
2022-12-19T17:29:04.203Z,40.3
2022-12-19T17:34:54.538Z,39.1
2022-12-19T17:40:45.848Z,38.4
2022-12-19T17:46:37.142Z,35.5
2022-12-19T17:52:28.042Z,35.5
2022-12-19T17:58:18.095Z,38.1
2022-12-19T18:04:09.692Z,34.2
2022-12-19T18:09:59.755Z,27.3
2022-12-19T18:15:50.546Z,36.6
2022-12-19T18:21:41.699Z,36.6
2022-12-19T18:27:32.928Z,28.7
2022-12-19T18:33:23.874Z,31.1
2022-12-19T18:39:14.759Z,29.9
2022-12-19T18:45:06.103Z,29.1
2022-12-19T18:50:55.318Z,28.5
2022-12-19T18:56:49.716Z,35.5
2022-12-19T19:02:42.765Z,33.2
2022-12-19T19:08:33.831Z,30.8
2022-12-19T19:14:25.901Z,28.8
2022-12-19T19:20:16.265Z,30.2
2022-12-19T19:26:06.418Z,29.5
2022-12-19T19:31:57.661Z,28.8
2022-12-19T19:37:48.029Z,31.5
2022-12-19T19:43:41.181Z,28.4
2022-12-19T19:49:31.597Z,28.5
2022-12-19T19:55:22.495Z,27.6
2022-12-19T20:01:14.340Z,28.5
2022-12-19T20:07:05.507Z,26.9
2022-12-19T20:12:56.739Z,26.1
2022-12-19T20:18:47.769Z,22.2
2022-12-19T20:24:36.792Z,27.7
2022-12-19T20:30:26.483Z,24.1
2022-12-19T20:36:17.624Z,29.6
2022-12-19T20:42:10.058Z,26.3
2022-12-19T20:48:01.369Z,27.6
2022-12-19T20:53:52.635Z,22.8
2022-12-19T20:59:42.956Z,22.3
2022-12-19T21:05:34.586Z,27.8
2022-12-19T21:11:25.117Z,24.3
2022-12-19T21:17:15.810Z,22.6
2022-12-19T21:23:07.803Z,20.1
2022-12-19T21:28:57.987Z,27.5
2022-12-19T21:34:53.005Z,25.8
2022-12-19T21:40:43.127Z,22.2
2022-12-19T21:46:35.991Z,16.1
2022-12-19T21:52:26.442Z,23.1
2022-12-19T21:58:24.396Z,22.6
2022-12-19T22:59:35.451Z,5.9
2022-12-19T23:20:44.852Z,5.6
